sensor_id;sensor_type;location;lat;lon;timestamp;pressure;altitude;pressure_sealevel;temperature;humidity
27210;BME280;14721;42.668;23.386;2023-04-10T00:02:18;95432.97;;;7.93;83.71
27210;BME280;14721;42.668;23.386;2023-04-10T00:04:44;95430.31;;;7.93;82.49
27210;BME280;14721;42.668;23.386;2023-04-10T00:07:10;95426.97;;;8.03;80.98
27210;BME280;14721;42.668;23.386;2023-04-10T00:09:38;95434.03;;;8.04;80.53
27210;BME280;14721;42.668;23.386;2023-04-10T00:12:07;95432.13;;;7.92;78.81
27210;BME280;14721;42.668;23.386;2023-04-10T00:14:32;95428.22;;;7.84;77.70
27210;BME280;14721;42.668;23.386;2023-04-10T00:16:58;95427.47;;;7.82;75.45
27210;BME280;14721;42.668;23.386;2023-04-10T00:19:23;95432.03;;;7.80;75.69
27210;BME280;14721;42.668;23.386;2023-04-10T00:21:49;95427.00;;;7.75;72.40
27210;BME280;14721;42.668;23.386;2023-04-10T00:24:14;95433.09;;;7.77;71.65
27210;BME280;14721;42.668;23.386;2023-04-10T00:26:40;95427.84;;;7.76;68.63
27210;BME280;14721;42.668;23.386;2023-04-10T00:31:51;95423.38;;;7.76;65.62
27210;BME280;14721;42.668;23.386;2023-04-10T00:34:17;95422.34;;;7.79;65.50
27210;BME280;14721;42.668;23.386;2023-04-10T00:36:44;95420.22;;;7.84;64.64
27210;BME280;14721;42.668;23.386;2023-04-10T00:39:10;95418.94;;;7.91;65.75
27210;BME280;14721;42.668;23.386;2023-04-10T00:41:37;95417.28;;;7.88;66.61
27210;BME280;14721;42.668;23.386;2023-04-10T00:44:06;95421.78;;;7.88;67.14
27210;BME280;14721;42.668;23.386;2023-04-10T00:46:38;95414.81;;;7.99;67.26
27210;BME280;14721;42.668;23.386;2023-04-10T00:49:04;95422.22;;;8.08;67.06
27210;BME280;14721;42.668;23.386;2023-04-10T00:51:30;95415.38;;;8.18;66.87
27210;BME280;14721;42.668;23.386;2023-04-10T00:53:56;95411.63;;;8.22;67.01
27210;BME280;14721;42.668;23.386;2023-04-10T00:56:24;95407.50;;;8.31;68.42
27210;BME280;14721;42.668;23.386;2023-04-10T00:58:53;95407.13;;;8.23;70.49
27210;BME280;14721;42.668;23.386;2023-04-10T01:01:20;95399.41;;;8.18;73.63
27210;BME280;14721;42.668;23.386;2023-04-10T01:03:46;95390.41;;;8.07;76.50
27210;BME280;14721;42.668;23.386;2023-04-10T01:12:10;95380.72;;;8.06;79.88
27210;BME280;14721;42.668;23.386;2023-04-10T01:17:42;95384.34;;;7.77;82.09
27210;BME280;14721;42.668;23.386;2023-04-10T01:20:11;95388.16;;;7.72;83.46
27210;BME280;14721;42.668;23.386;2023-04-10T01:22:44;95388.03;;;7.60;84.27
27210;BME280;14721;42.668;23.386;2023-04-10T01:31:10;95379.84;;;7.91;85.39
27210;BME280;14721;42.668;23.386;2023-04-10T01:33:42;95379.94;;;8.04;84.41
27210;BME280;14721;42.668;23.386;2023-04-10T01:36:12;95381.28;;;7.97;84.50
27210;BME280;14721;42.668;23.386;2023-04-10T01:38:42;95380.25;;;7.85;85.51
27210;BME280;14721;42.668;23.386;2023-04-10T01:41:08;95378.25;;;7.89;85.09
27210;BME280;14721;42.668;23.386;2023-04-10T01:43:34;95386.03;;;7.78;84.65
27210;BME280;14721;42.668;23.386;2023-04-10T01:46:02;95385.19;;;7.77;83.05
27210;BME280;14721;42.668;23.386;2023-04-10T01:48:28;95383.47;;;7.76;83.09
27210;BME280;14721;42.668;23.386;2023-04-10T01:50:55;95386.03;;;7.78;82.16
27210;BME280;14721;42.668;23.386;2023-04-10T01:53:22;95385.88;;;7.66;83.03
27210;BME280;14721;42.668;23.386;2023-04-10T01:55:49;95391.19;;;7.66;82.28
27210;BME280;14721;42.668;23.386;2023-04-10T01:58:15;95373.91;;;7.45;82.05
27210;BME280;14721;42.668;23.386;2023-04-10T02:00:42;95379.34;;;7.58;81.97
27210;BME280;14721;42.668;23.386;2023-04-10T02:03:08;95381.00;;;7.73;81.70
27210;BME280;14721;42.668;23.386;2023-04-10T02:05:45;95390.69;;;8.02;81.73
27210;BME280;14721;42.668;23.386;2023-04-10T02:08:34;95383.34;;;8.20;80.18
27210;BME280;14721;42.668;23.386;2023-04-10T02:13:37;95358.69;;;8.44;77.46
27210;BME280;14721;42.668;23.386;2023-04-10T02:16:06;95356.13;;;8.43;77.60
27210;BME280;14721;42.668;23.386;2023-04-10T02:18:43;95363.44;;;8.39;77.85
27210;BME280;14721;42.668;23.386;2023-04-10T02:21:10;95355.97;;;8.32;76.67
27210;BME280;14721;42.668;23.386;2023-04-10T02:23:36;95360.34;;;8.33;77.58
27210;BME280;14721;42.668;23.386;2023-04-10T02:26:08;95365.19;;;8.26;77.79
27210;BME280;14721;42.668;23.386;2023-04-10T02:28:34;95352.56;;;8.02;76.58
27210;BME280;14721;42.668;23.386;2023-04-10T02:31:01;95356.66;;;8.07;75.41
27210;BME280;14721;42.668;23.386;2023-04-10T02:33:27;95357.88;;;8.16;75.00
27210;BME280;14721;42.668;23.386;2023-04-10T02:35:52;95347.06;;;8.05;75.61
27210;BME280;14721;42.668;23.386;2023-04-10T02:38:17;95344.00;;;8.11;75.39
27210;BME280;14721;42.668;23.386;2023-04-10T02:40:43;95339.25;;;8.16;75.01
27210;BME280;14721;42.668;23.386;2023-04-10T02:43:08;95342.41;;;8.08;75.03
27210;BME280;14721;42.668;23.386;2023-04-10T02:45:36;95329.00;;;8.10;74.75
27210;BME280;14721;42.668;23.386;2023-04-10T02:48:07;95334.41;;;8.08;74.76
27210;BME280;14721;42.668;23.386;2023-04-10T02:50:33;95337.31;;;8.32;75.06
27210;BME280;14721;42.668;23.386;2023-04-10T02:52:58;95335.78;;;8.42;74.12
27210;BME280;14721;42.668;23.386;2023-04-10T02:55:24;95328.19;;;8.36;73.40
27210;BME280;14721;42.668;23.386;2023-04-10T02:57:49;95329.22;;;8.33;73.53
27210;BME280;14721;42.668;23.386;2023-04-10T03:00:15;95332.50;;;8.24;73.86
27210;BME280;14721;42.668;23.386;2023-04-10T03:02:43;95340.50;;;8.10;74.17
27210;BME280;14721;42.668;23.386;2023-04-10T03:05:09;95334.91;;;8.01;74.80
27210;BME280;14721;42.668;23.386;2023-04-10T03:07:35;95335.97;;;7.84;77.13
27210;BME280;14721;42.668;23.386;2023-04-10T03:10:01;95332.47;;;7.84;77.62
27210;BME280;14721;42.668;23.386;2023-04-10T03:12:26;95334.47;;;7.66;78.30
27210;BME280;14721;42.668;23.386;2023-04-10T03:14:52;95326.44;;;7.39;77.90
27210;BME280;14721;42.668;23.386;2023-04-10T03:17:17;95329.47;;;7.33;78.79
27210;BME280;14721;42.668;23.386;2023-04-10T03:19:43;95321.78;;;7.29;79.09
27210;BME280;14721;42.668;23.386;2023-04-10T03:22:08;95325.38;;;7.28;80.29
27210;BME280;14721;42.668;23.386;2023-04-10T03:24:35;95337.69;;;7.15;79.94
27210;BME280;14721;42.668;23.386;2023-04-10T03:27:02;95339.31;;;7.03;80.24
27210;BME280;14721;42.668;23.386;2023-04-10T03:29:28;95329.53;;;7.18;80.20
27210;BME280;14721;42.668;23.386;2023-04-10T03:31:53;95335.66;;;7.34;80.78
27210;BME280;14721;42.668;23.386;2023-04-10T03:34:19;95329.47;;;7.47;79.97
27210;BME280;14721;42.668;23.386;2023-04-10T03:36:44;95341.91;;;7.61;78.77
27210;BME280;14721;42.668;23.386;2023-04-10T03:39:10;95345.25;;;7.50;78.71
27210;BME280;14721;42.668;23.386;2023-04-10T03:41:36;95340.28;;;7.30;79.73
27210;BME280;14721;42.668;23.386;2023-04-10T03:44:03;95347.00;;;7.36;79.01
27210;BME280;14721;42.668;23.386;2023-04-10T03:46:28;95348.63;;;7.24;79.73
27210;BME280;14721;42.668;23.386;2023-04-10T03:48:54;95352.53;;;7.19;80.17
27210;BME280;14721;42.668;23.386;2023-04-10T03:51:19;95339.47;;;7.00;82.03
27210;BME280;14721;42.668;23.386;2023-04-10T03:53:45;95347.38;;;7.02;83.25
27210;BME280;14721;42.668;23.386;2023-04-10T03:56:11;95356.66;;;6.95;83.25
27210;BME280;14721;42.668;23.386;2023-04-10T03:58:37;95353.13;;;6.94;83.95
27210;BME280;14721;42.668;23.386;2023-04-10T04:01:03;95355.38;;;6.86;84.99
27210;BME280;14721;42.668;23.386;2023-04-10T04:03:29;95359.78;;;6.87;85.46
27210;BME280;14721;42.668;23.386;2023-04-10T04:05:54;95357.66;;;6.92;85.32
27210;BME280;14721;42.668;23.386;2023-04-10T04:08:20;95361.50;;;7.02;84.71
27210;BME280;14721;42.668;23.386;2023-04-10T04:10:45;95358.50;;;7.08;84.61
27210;BME280;14721;42.668;23.386;2023-04-10T04:13:11;95354.50;;;7.15;84.30
27210;BME280;14721;42.668;23.386;2023-04-10T04:15:36;95355.19;;;7.33;83.13
27210;BME280;14721;42.668;23.386;2023-04-10T04:18:02;95358.25;;;7.55;82.31
27210;BME280;14721;42.668;23.386;2023-04-10T04:20:27;95359.19;;;7.68;81.84
27210;BME280;14721;42.668;23.386;2023-04-10T04:22:53;95360.31;;;7.50;81.74
27210;BME280;14721;42.668;23.386;2023-04-10T04:25:18;95363.94;;;7.49;82.40
27210;BME280;14721;42.668;23.386;2023-04-10T04:27:44;95373.44;;;7.53;82.65
27210;BME280;14721;42.668;23.386;2023-04-10T04:30:10;95365.34;;;7.54;83.17
27210;BME280;14721;42.668;23.386;2023-04-10T04:32:35;95366.88;;;7.72;82.50
27210;BME280;14721;42.668;23.386;2023-04-10T04:35:01;95369.97;;;7.79;82.27
27210;BME280;14721;42.668;23.386;2023-04-10T04:37:26;95374.44;;;7.93;82.35
27210;BME280;14721;42.668;23.386;2023-04-10T04:39:52;95376.91;;;8.10;82.11
27210;BME280;14721;42.668;23.386;2023-04-10T04:42:18;95375.63;;;8.15;81.58
27210;BME280;14721;42.668;23.386;2023-04-10T04:44:43;95368.63;;;8.00;82.46
27210;BME280;14721;42.668;23.386;2023-04-10T04:47:11;95379.84;;;7.91;82.96
27210;BME280;14721;42.668;23.386;2023-04-10T04:49:37;95374.91;;;8.13;82.97
27210;BME280;14721;42.668;23.386;2023-04-10T04:52:05;95382.38;;;8.35;82.24
27210;BME280;14721;42.668;23.386;2023-04-10T04:54:33;95372.50;;;8.63;82.09
27210;BME280;14721;42.668;23.386;2023-04-10T04:57:01;95382.13;;;9.05;80.34
27210;BME280;14721;42.668;23.386;2023-04-10T04:59:30;95386.22;;;9.48;78.97
27210;BME280;14721;42.668;23.386;2023-04-10T05:01:56;95383.44;;;9.75;76.63
27210;BME280;14721;42.668;23.386;2023-04-10T05:04:21;95388.38;;;9.93;75.44
27210;BME280;14721;42.668;23.386;2023-04-10T05:06:47;95378.97;;;10.25;74.29
27210;BME280;14721;42.668;23.386;2023-04-10T05:09:12;95383.00;;;10.31;72.58
27210;BME280;14721;42.668;23.386;2023-04-10T05:11:38;95379.19;;;10.10;73.69
27210;BME280;14721;42.668;23.386;2023-04-10T05:14:04;95387.47;;;10.66;72.13
27210;BME280;14721;42.668;23.386;2023-04-10T05:16:30;95386.63;;;10.89;70.93
27210;BME280;14721;42.668;23.386;2023-04-10T05:18:55;95381.88;;;11.16;68.32
27210;BME280;14721;42.668;23.386;2023-04-10T05:21:21;95377.25;;;11.53;67.64
27210;BME280;14721;42.668;23.386;2023-04-10T05:23:46;95388.13;;;11.63;66.92
27210;BME280;14721;42.668;23.386;2023-04-10T05:26:12;95384.47;;;11.64;65.50
27210;BME280;14721;42.668;23.386;2023-04-10T05:28:37;95382.00;;;12.17;64.19
27210;BME280;14721;42.668;23.386;2023-04-10T05:31:03;95377.31;;;12.74;62.66
27210;BME280;14721;42.668;23.386;2023-04-10T05:33:28;95372.94;;;12.94;60.98
27210;BME280;14721;42.668;23.386;2023-04-10T05:35:54;95375.06;;;13.54;60.14
27210;BME280;14721;42.668;23.386;2023-04-10T05:38:24;95367.66;;;14.08;57.16
27210;BME280;14721;42.668;23.386;2023-04-10T05:40:50;95374.06;;;14.46;56.07
27210;BME280;14721;42.668;23.386;2023-04-10T05:43:15;95375.94;;;14.55;55.16
27210;BME280;14721;42.668;23.386;2023-04-10T05:45:44;95377.97;;;14.72;53.47
27210;BME280;14721;42.668;23.386;2023-04-10T05:48:09;95384.19;;;14.63;54.11
27210;BME280;14721;42.668;23.386;2023-04-10T05:50:35;95373.50;;;14.22;53.54
27210;BME280;14721;42.668;23.386;2023-04-10T05:53:02;95381.88;;;13.99;54.44
27210;BME280;14721;42.668;23.386;2023-04-10T05:55:30;95365.25;;;13.43;55.21
27210;BME280;14721;42.668;23.386;2023-04-10T05:57:55;95388.22;;;12.93;56.67
27210;BME280;14721;42.668;23.386;2023-04-10T06:00:20;95386.00;;;12.34;58.55
27210;BME280;14721;42.668;23.386;2023-04-10T06:02:46;95396.34;;;12.05;59.46
27210;BME280;14721;42.668;23.386;2023-04-10T06:05:11;95388.63;;;11.79;59.95
27210;BME280;14721;42.668;23.386;2023-04-10T06:07:37;95401.44;;;11.40;60.75
27210;BME280;14721;42.668;23.386;2023-04-10T06:10:02;95395.25;;;11.16;62.66
27210;BME280;14721;42.668;23.386;2023-04-10T06:12:28;95392.13;;;10.99;63.05
27210;BME280;14721;42.668;23.386;2023-04-10T06:14:53;95389.97;;;10.80;63.93
27210;BME280;14721;42.668;23.386;2023-04-10T06:17:19;95384.56;;;11.16;63.98
27210;BME280;14721;42.668;23.386;2023-04-10T06:19:45;95387.59;;;11.58;62.56
27210;BME280;14721;42.668;23.386;2023-04-10T06:22:10;95395.25;;;11.86;61.79
27210;BME280;14721;42.668;23.386;2023-04-10T06:24:38;95386.59;;;11.82;60.27
27210;BME280;14721;42.668;23.386;2023-04-10T06:27:04;95389.13;;;11.73;60.58
27210;BME280;14721;42.668;23.386;2023-04-10T06:29:30;95387.69;;;11.56;61.93
27210;BME280;14721;42.668;23.386;2023-04-10T06:31:58;95389.63;;;11.43;62.93
27210;BME280;14721;42.668;23.386;2023-04-10T06:34:24;95381.66;;;11.19;62.58
27210;BME280;14721;42.668;23.386;2023-04-10T06:36:55;95379.06;;;10.83;63.60
27210;BME280;14721;42.668;23.386;2023-04-10T06:39:21;95386.97;;;10.85;64.66
27210;BME280;14721;42.668;23.386;2023-04-10T06:41:47;95380.09;;;10.70;65.56
27210;BME280;14721;42.668;23.386;2023-04-10T06:44:12;95387.88;;;10.73;65.77
27210;BME280;14721;42.668;23.386;2023-04-10T06:46:38;95392.59;;;10.69;66.11
27210;BME280;14721;42.668;23.386;2023-04-10T06:49:06;95389.13;;;10.56;67.16
27210;BME280;14721;42.668;23.386;2023-04-10T06:51:37;95398.19;;;10.54;65.92
27210;BME280;14721;42.668;23.386;2023-04-10T06:54:05;95397.47;;;10.39;65.77
27210;BME280;14721;42.668;23.386;2023-04-10T06:56:31;95401.38;;;10.59;65.91
27210;BME280;14721;42.668;23.386;2023-04-10T06:58:56;95408.31;;;10.61;65.12
27210;BME280;14721;42.668;23.386;2023-04-10T07:01:22;95396.69;;;10.86;64.79
27210;BME280;14721;42.668;23.386;2023-04-10T07:03:47;95397.00;;;11.05;64.73
27210;BME280;14721;42.668;23.386;2023-04-10T07:06:13;95401.91;;;11.11;63.80
27210;BME280;14721;42.668;23.386;2023-04-10T07:08:38;95401.00;;;10.99;64.06
27210;BME280;14721;42.668;23.386;2023-04-10T07:11:04;95405.84;;;10.94;64.63
27210;BME280;14721;42.668;23.386;2023-04-10T07:13:32;95398.00;;;10.80;64.99
27210;BME280;14721;42.668;23.386;2023-04-10T07:16:00;95399.28;;;10.39;64.86
27210;BME280;14721;42.668;23.386;2023-04-10T07:18:25;95401.38;;;10.23;65.71
27210;BME280;14721;42.668;23.386;2023-04-10T07:20:53;95406.41;;;10.02;65.96
27210;BME280;14721;42.668;23.386;2023-04-10T07:23:24;95403.72;;;9.90;66.14
27210;BME280;14721;42.668;23.386;2023-04-10T07:25:55;95396.69;;;9.89;66.58
27210;BME280;14721;42.668;23.386;2023-04-10T07:28:25;95403.84;;;9.88;66.47
27210;BME280;14721;42.668;23.386;2023-04-10T07:30:51;95407.91;;;9.94;66.29
27210;BME280;14721;42.668;23.386;2023-04-10T07:33:25;95407.16;;;9.92;66.53
27210;BME280;14721;42.668;23.386;2023-04-10T07:35:55;95408.97;;;10.04;66.37
27210;BME280;14721;42.668;23.386;2023-04-10T07:38:20;95401.16;;;10.26;66.06
27210;BME280;14721;42.668;23.386;2023-04-10T07:40:48;95403.34;;;10.80;64.73
27210;BME280;14721;42.668;23.386;2023-04-10T07:43:13;95411.06;;;10.96;63.13
27210;BME280;14721;42.668;23.386;2023-04-10T07:45:40;95406.50;;;11.32;62.45
27210;BME280;14721;42.668;23.386;2023-04-10T07:48:05;95404.59;;;11.45;61.93
27210;BME280;14721;42.668;23.386;2023-04-10T07:50:33;95397.53;;;11.44;61.92
27210;BME280;14721;42.668;23.386;2023-04-10T07:53:02;95407.72;;;11.39;62.08
27210;BME280;14721;42.668;23.386;2023-04-10T07:55:36;95409.34;;;11.18;62.27
27210;BME280;14721;42.668;23.386;2023-04-10T07:58:05;95406.59;;;10.96;62.90
27210;BME280;14721;42.668;23.386;2023-04-10T08:00:35;95398.34;;;10.99;63.73
27210;BME280;14721;42.668;23.386;2023-04-10T08:03:00;95405.59;;;10.97;63.32
27210;BME280;14721;42.668;23.386;2023-04-10T08:05:26;95401.47;;;10.70;64.08
27210;BME280;14721;42.668;23.386;2023-04-10T08:07:52;95400.59;;;10.69;64.27
27210;BME280;14721;42.668;23.386;2023-04-10T08:10:18;95400.34;;;10.85;64.08
27210;BME280;14721;42.668;23.386;2023-04-10T08:12:43;95394.78;;;10.52;65.04
27210;BME280;14721;42.668;23.386;2023-04-10T08:15:09;95406.94;;;10.56;65.04
27210;BME280;14721;42.668;23.386;2023-04-10T08:17:35;95402.47;;;10.56;65.16
27210;BME280;14721;42.668;23.386;2023-04-10T08:20:00;95397.13;;;10.56;65.02
27210;BME280;14721;42.668;23.386;2023-04-10T08:22:26;95398.00;;;10.80;64.93
27210;BME280;14721;42.668;23.386;2023-04-10T08:24:51;95399.44;;;11.08;63.86
27210;BME280;14721;42.668;23.386;2023-04-10T08:27:17;95398.50;;;11.43;63.09
27210;BME280;14721;42.668;23.386;2023-04-10T08:29:43;95392.50;;;11.64;62.55
27210;BME280;14721;42.668;23.386;2023-04-10T08:32:08;95397.03;;;11.39;62.75
27210;BME280;14721;42.668;23.386;2023-04-10T08:34:34;95388.88;;;11.30;63.74
27210;BME280;14721;42.668;23.386;2023-04-10T08:37:00;95396.53;;;11.34;63.71
27210;BME280;14721;42.668;23.386;2023-04-10T08:39:28;95400.59;;;11.51;63.22
27210;BME280;14721;42.668;23.386;2023-04-10T08:41:54;95404.63;;;11.57;62.83
27210;BME280;14721;42.668;23.386;2023-04-10T08:44:20;95402.06;;;11.55;62.65
27210;BME280;14721;42.668;23.386;2023-04-10T08:46:46;95392.38;;;11.30;62.55
27210;BME280;14721;42.668;23.386;2023-04-10T08:52:24;95382.16;;;11.01;64.09
27210;BME280;14721;42.668;23.386;2023-04-10T08:54:54;95399.56;;;11.06;63.78
27210;BME280;14721;42.668;23.386;2023-04-10T08:57:20;95395.19;;;11.05;63.30
27210;BME280;14721;42.668;23.386;2023-04-10T08:59:48;95400.22;;;10.86;62.17
27210;BME280;14721;42.668;23.386;2023-04-10T09:02:13;95388.31;;;10.90;62.37
27210;BME280;14721;42.668;23.386;2023-04-10T09:04:46;95388.19;;;11.15;61.40
27210;BME280;14721;42.668;23.386;2023-04-10T09:07:12;95384.59;;;11.62;60.34
27210;BME280;14721;42.668;23.386;2023-04-10T09:09:37;95395.47;;;11.94;57.74
27210;BME280;14721;42.668;23.386;2023-04-10T09:12:03;95382.72;;;11.52;57.69
27210;BME280;14721;42.668;23.386;2023-04-10T09:14:31;95385.16;;;11.55;56.34
27210;BME280;14721;42.668;23.386;2023-04-10T09:17:10;95389.03;;;11.51;57.86
27210;BME280;14721;42.668;23.386;2023-04-10T09:19:36;95377.53;;;11.26;58.68
27210;BME280;14721;42.668;23.386;2023-04-10T09:22:02;95376.88;;;11.12;59.64
27210;BME280;14721;42.668;23.386;2023-04-10T09:24:27;95371.53;;;11.12;60.42
27210;BME280;14721;42.668;23.386;2023-04-10T09:26:53;95376.06;;;11.22;59.20
27210;BME280;14721;42.668;23.386;2023-04-10T09:29:19;95369.31;;;11.06;60.05
27210;BME280;14721;42.668;23.386;2023-04-10T09:31:45;95374.84;;;10.68;60.88
27210;BME280;14721;42.668;23.386;2023-04-10T09:34:17;95376.66;;;10.91;61.56
27210;BME280;14721;42.668;23.386;2023-04-10T09:36:53;95377.56;;;11.03;60.92
27210;BME280;14721;42.668;23.386;2023-04-10T09:39:19;95358.63;;;10.82;61.43
27210;BME280;14721;42.668;23.386;2023-04-10T09:41:53;95373.97;;;10.91;60.83
27210;BME280;14721;42.668;23.386;2023-04-10T09:44:30;95366.25;;;10.99;60.89
27210;BME280;14721;42.668;23.386;2023-04-10T09:46:57;95362.03;;;11.08;60.84
27210;BME280;14721;42.668;23.386;2023-04-10T09:49:23;95371.19;;;11.16;59.27
27210;BME280;14721;42.668;23.386;2023-04-10T09:51:49;95366.56;;;11.18;58.22
27210;BME280;14721;42.668;23.386;2023-04-10T09:54:14;95371.00;;;11.41;57.76
27210;BME280;14721;42.668;23.386;2023-04-10T09:56:40;95365.38;;;11.68;56.37
27210;BME280;14721;42.668;23.386;2023-04-10T09:59:09;95373.28;;;11.70;56.80
27210;BME280;14721;42.668;23.386;2023-04-10T10:01:38;95359.19;;;11.68;56.73
27210;BME280;14721;42.668;23.386;2023-04-10T10:04:04;95366.72;;;11.63;56.20
27210;BME280;14721;42.668;23.386;2023-04-10T10:06:31;95351.81;;;11.48;56.65
27210;BME280;14721;42.668;23.386;2023-04-10T10:09:04;95356.88;;;11.74;55.81
27210;BME280;14721;42.668;23.386;2023-04-10T10:11:34;95352.16;;;11.89;55.80
27210;BME280;14721;42.668;23.386;2023-04-10T10:14:12;95340.22;;;11.82;56.03
27210;BME280;14721;42.668;23.386;2023-04-10T10:16:46;95350.56;;;11.75;55.24
27210;BME280;14721;42.668;23.386;2023-04-10T10:19:23;95342.63;;;11.63;55.87
27210;BME280;14721;42.668;23.386;2023-04-10T10:21:51;95339.97;;;11.74;56.60
27210;BME280;14721;42.668;23.386;2023-04-10T10:24:19;95334.38;;;11.88;55.96
27210;BME280;14721;42.668;23.386;2023-04-10T10:26:46;95328.41;;;12.17;54.62
27210;BME280;14721;42.668;23.386;2023-04-10T10:29:14;95338.16;;;12.18;53.99
27210;BME280;14721;42.668;23.386;2023-04-10T10:31:41;95319.28;;;12.20;54.14
27210;BME280;14721;42.668;23.386;2023-04-10T10:34:07;95328.31;;;12.19;54.34
27210;BME280;14721;42.668;23.386;2023-04-10T10:36:34;95325.72;;;12.39;54.08
27210;BME280;14721;42.668;23.386;2023-04-10T10:42:11;95309.31;;;12.22;54.84
27210;BME280;14721;42.668;23.386;2023-04-10T10:47:28;95301.59;;;12.28;53.78
27210;BME280;14721;42.668;23.386;2023-04-10T10:49:58;95287.50;;;12.26;54.70
27210;BME280;14721;42.668;23.386;2023-04-10T10:58:04;95291.75;;;13.03;50.45
27210;BME280;14721;42.668;23.386;2023-04-10T11:05:53;95270.38;;;13.33;51.77
27210;BME280;14721;42.668;23.386;2023-04-10T11:13:28;95261.78;;;14.20;47.26
27210;BME280;14721;42.668;23.386;2023-04-10T11:15:57;95252.66;;;14.11;46.87
27210;BME280;14721;42.668;23.386;2023-04-10T11:23:37;95262.28;;;13.23;49.34
27210;BME280;14721;42.668;23.386;2023-04-10T11:26:06;95256.44;;;13.18;51.47
27210;BME280;14721;42.668;23.386;2023-04-10T11:31:26;95256.50;;;13.07;51.24
27210;BME280;14721;42.668;23.386;2023-04-10T11:36:19;95256.44;;;13.39;51.37
27210;BME280;14721;42.668;23.386;2023-04-10T11:41:20;95254.34;;;13.43;50.59
27210;BME280;14721;42.668;23.386;2023-04-10T11:43:51;95258.16;;;13.40;50.94
27210;BME280;14721;42.668;23.386;2023-04-10T11:46:16;95257.88;;;13.43;49.68
27210;BME280;14721;42.668;23.386;2023-04-10T11:48:42;95253.19;;;13.36;49.99
27210;BME280;14721;42.668;23.386;2023-04-10T11:51:09;95262.41;;;13.22;50.88
27210;BME280;14721;42.668;23.386;2023-04-10T11:53:36;95265.22;;;12.89;51.79
27210;BME280;14721;42.668;23.386;2023-04-10T11:56:02;95253.25;;;12.93;51.25
27210;BME280;14721;42.668;23.386;2023-04-10T11:58:29;95269.84;;;12.66;50.79
27210;BME280;14721;42.668;23.386;2023-04-10T12:01:02;95262.53;;;12.15;52.16
27210;BME280;14721;42.668;23.386;2023-04-10T12:03:36;95258.81;;;11.84;54.07
27210;BME280;14721;42.668;23.386;2023-04-10T12:06:09;95244.81;;;11.92;53.99
27210;BME280;14721;42.668;23.386;2023-04-10T12:08:37;95256.25;;;12.05;55.03
27210;BME280;14721;42.668;23.386;2023-04-10T12:11:03;95255.41;;;11.93;56.86
27210;BME280;14721;42.668;23.386;2023-04-10T12:13:31;95258.44;;;11.56;61.04
27210;BME280;14721;42.668;23.386;2023-04-10T12:15:58;95258.38;;;11.33;63.88
27210;BME280;14721;42.668;23.386;2023-04-10T12:18:28;95270.41;;;10.71;67.38
27210;BME280;14721;42.668;23.386;2023-04-10T12:20:55;95278.31;;;10.49;69.36
27210;BME280;14721;42.668;23.386;2023-04-10T12:23:22;95260.41;;;10.39;69.36
27210;BME280;14721;42.668;23.386;2023-04-10T12:25:49;95260.47;;;10.50;69.90
27210;BME280;14721;42.668;23.386;2023-04-10T12:28:17;95272.72;;;10.52;71.75
27210;BME280;14721;42.668;23.386;2023-04-10T12:30:50;95257.50;;;10.42;73.77
27210;BME280;14721;42.668;23.386;2023-04-10T12:33:23;95251.94;;;10.21;75.16
27210;BME280;14721;42.668;23.386;2023-04-10T12:35:49;95267.13;;;10.44;75.44
27210;BME280;14721;42.668;23.386;2023-04-10T12:38:40;95266.00;;;10.70;73.50
27210;BME280;14721;42.668;23.386;2023-04-10T12:41:07;95259.66;;;10.95;69.46
27210;BME280;14721;42.668;23.386;2023-04-10T12:46:04;95261.53;;;11.16;62.16
27210;BME280;14721;42.668;23.386;2023-04-10T12:48:30;95271.53;;;11.25;63.02
27210;BME280;14721;42.668;23.386;2023-04-10T12:50:55;95271.84;;;11.10;65.78
27210;BME280;14721;42.668;23.386;2023-04-10T12:53:22;95265.13;;;10.93;67.02
27210;BME280;14721;42.668;23.386;2023-04-10T12:56:03;95263.09;;;10.97;68.33
27210;BME280;14721;42.668;23.386;2023-04-10T12:58:31;95248.00;;;10.96;66.86
27210;BME280;14721;42.668;23.386;2023-04-10T13:01:07;95245.44;;;10.94;67.44
27210;BME280;14721;42.668;23.386;2023-04-10T13:03:38;95243.19;;;11.12;67.22
27210;BME280;14721;42.668;23.386;2023-04-10T13:06:07;95243.94;;;11.25;66.88
27210;BME280;14721;42.668;23.386;2023-04-10T13:08:35;95232.59;;;11.21;66.69
27210;BME280;14721;42.668;23.386;2023-04-10T13:11:01;95232.13;;;11.27;66.32
27210;BME280;14721;42.668;23.386;2023-04-10T13:13:31;95236.25;;;11.20;65.55
27210;BME280;14721;42.668;23.386;2023-04-10T13:16:00;95225.94;;;11.49;65.28
27210;BME280;14721;42.668;23.386;2023-04-10T13:18:25;95223.41;;;11.70;64.83
27210;BME280;14721;42.668;23.386;2023-04-10T13:20:51;95219.41;;;11.75;62.48
27210;BME280;14721;42.668;23.386;2023-04-10T13:23:16;95203.09;;;11.67;61.54
27210;BME280;14721;42.668;23.386;2023-04-10T13:25:42;95214.53;;;11.80;62.63
27210;BME280;14721;42.668;23.386;2023-04-10T13:28:08;95201.53;;;11.65;63.27
27210;BME280;14721;42.668;23.386;2023-04-10T13:30:40;95214.41;;;11.82;63.66
27210;BME280;14721;42.668;23.386;2023-04-10T13:33:07;95214.38;;;11.93;62.94
27210;BME280;14721;42.668;23.386;2023-04-10T13:35:33;95214.44;;;12.13;62.72
27210;BME280;14721;42.668;23.386;2023-04-10T13:37:59;95208.09;;;12.25;61.89
27210;BME280;14721;42.668;23.386;2023-04-10T13:40:25;95207.50;;;12.22;61.35
27210;BME280;14721;42.668;23.386;2023-04-10T13:42:50;95207.03;;;12.17;61.39
27210;BME280;14721;42.668;23.386;2023-04-10T13:45:16;95191.09;;;12.15;62.10
27210;BME280;14721;42.668;23.386;2023-04-10T13:47:42;95193.63;;;12.17;62.30
27210;BME280;14721;42.668;23.386;2023-04-10T13:50:09;95177.53;;;12.28;61.03
27210;BME280;14721;42.668;23.386;2023-04-10T13:52:35;95187.94;;;12.42;60.51
27210;BME280;14721;42.668;23.386;2023-04-10T13:55:00;95184.88;;;12.46;57.83